• Join FlightAware (Why Join?)
  • Login
  • US Flag 
01:34PM EDT


 

Airport Tracker/Info


-or-


 

Live Flight TrackerFlight Track Log ✈ SWA3497 ✈ 16-Apr-2013 ✈ KSDF - KBWI

Flight Track Log - Related Links

Times and Time Zones

All times are in EDT time to prevent confusion due to time zone crossing. See the SWA3497 flight status page for this flight to view local times or setup timezone preferences in your user account.

Time Position Orientation Groundspeed Altitude Reporting Facility
EDT Latitude Longitude Course Direction KTS MPH feet Rate Location/Type
02:04PM 38.1339 -85.7292 172° South 171 197 2,500  Level FAA TRACON SMA TRACON (SMA)
02:04PM 38.1178 -85.7214 159° South 196 226 3,400 3,120 Climbing FAA TRACON SMA TRACON (SMA)
02:05PM 38.0969 -85.7108 158° South 211 243 4,600 3,120 Climbing FAA TRACON SMA TRACON (SMA)
02:05PM 38.0864 -85.6897 122° Southeast 234 269 5,500 2,160 Climbing FAA TRACON SMA TRACON (SMA)
02:05PM 38.0883 -85.6533 86° East 267 307 6,100 2,220 Climbing FAA TRACON SMA TRACON (SMA)
02:06PM 38.0911 -85.6214 84° East 291 335 7,000 3,060 Climbing FAA TRACON SMA TRACON (SMA)
02:06PM 38.0939 -85.5883 84° East 302 348 8,100 3,420 Climbing FAA TRACON SMA TRACON (SMA)
02:06PM 38.0953 -85.5467 88° East 309 356 9,300 3,000 Climbing FAA TRACON SMA TRACON (SMA)
02:07PM 38.0953 -85.5122 90° East 315 362 10,100 2,760 Climbing FAA TRACON SMA TRACON (SMA)
02:07PM 38.0981 -85.4772 84° East 323 372 11,100 3,480 Climbing FAA TRACON SMA TRACON (SMA)
02:07PM 38.1019 -85.4303 84° East 343 395 12,500 3,900 Climbing FAA TRACON SMA TRACON (SMA)
02:08PM 38.1053 -85.3914 84° East 356 410 13,700 3,600 Climbing FAA TRACON SMA TRACON (SMA)
02:08PM 38.1086 -85.3522 84° East 364 419 14,900 3,900 Climbing FAA TRACON SMA TRACON (SMA)
02:08PM 38.1131 -85.3014 84° East 373 429 16,300 3,900 Climbing FAA TRACON SMA TRACON (SMA)
02:09PM 38.1164 -85.2606 84° East 379 436 17,500 3,060 Climbing FAA TRACON SMA TRACON (SMA)
02:09PM 38.1197 -85.2186 84° East 387 445 18,400 3,180 Climbing FAA TRACON SMA TRACON (SMA)
02:09PM 38.1239 -85.1644 84° East 398 458 19,600 3,300 Climbing FAA TRACON SMA TRACON (SMA)
02:10PM 38.1281 -85.1206 83° East 406 467 20,600 2,820 Climbing FAA TRACON SMA TRACON (SMA)
02:10PM 38.1314 -85.0756 85° East 412 474 21,500 3,120 Climbing FAA TRACON SMA TRACON (SMA)
02:10PM 38.1364 -85.0192 84° East 420 483 22,700 2,160 Climbing FAA TRACON SMA TRACON (SMA)
02:11PM 38.1406 -84.9733 83° East 424 488 23,000 420 Climbing FAA TRACON SMA TRACON (SMA)
02:11PM 38.1436 -84.9272 85° East 425 489 23,000 720 Level FAA TRACON SMA TRACON (SMA)
02:11PM 38.1489 -84.8703 83° East 424 488 23,500 2,040 Climbing FAA TRACON SMA TRACON (SMA)
02:12PM 38.1522 -84.8242 85° East 425 489 24,400 2,520 Climbing FAA TRACON SMA TRACON (SMA)
02:12PM 38.1564 -84.7778 83° East 428 493 25,200 2,700 Climbing FAA TRACON SMA TRACON (SMA)
02:12PM 38.1619 -84.7183 83° East 438 504 26,200 2,520 Climbing FAA TRACON SMA TRACON (SMA)
02:13PM 38.1658 -84.6700 84° East 444 511 26,900 2,100 Climbing FAA TRACON SMA TRACON (SMA)
02:13PM 38.1689 -84.6211 85° East 451 519 27,600 2,160 Climbing FAA TRACON SMA TRACON (SMA)
02:13PM 38.1750 -84.5592 83° East 458 527 28,400 2,400 Climbing FAA TRACON SMA TRACON (SMA)
02:14PM 38.1789 -84.5086 84° East 464 534 29,200 2,220 Climbing FAA TRACON SMA TRACON (SMA)
02:14PM 38.1833 -84.4581 84° East 468 539 29,900 1,800 Climbing FAA TRACON SMA TRACON (SMA)
02:15PM 38.1947 -84.2739 85° East 475 547 32,000 1,380 Climbing Indianapolis Center
02:16PM 38.2067 -84.1050 85° East 479 551 33,000 1,500 Climbing Indianapolis Center
02:17PM 38.2192 -83.9339 85° East 483 556 35,100 1,500 Climbing Indianapolis Center
02:18PM 38.2303 -83.7628 85° East 485 558 36,100 900 Climbing Indianapolis Center
02:19PM 38.2442 -83.5569 85° East 496 571 37,000 420 Climbing Indianapolis Center
02:20PM 38.2561 -83.3789 85° East 502 578 37,000 240 Level Indianapolis Center
02:21PM 38.2519 -83.2017 92° East 502 578 37,500 840 Climbing Indianapolis Center
02:22PM 38.2389 -83.0244 95° East 503 579 38,800 1,320 Climbing Indianapolis Center
02:23PM 38.2344 -82.8472 92° East 501 577 40,300 1,020 Climbing Indianapolis Center
02:25PM 38.2403 -82.6711 88° East 500 575 41,000 300 Climbing Indianapolis Center
02:26PM 38.2444 -82.4864 88° East 497 572 41,000  Level Indianapolis Center
02:27PM 38.2478 -82.3106 89° East 498 573 41,000  Level Indianapolis Center
02:28PM 38.2506 -82.1353 89° East 497 572 41,000  Level Indianapolis Center
02:29PM 38.2533 -81.9608 89° East 498 573 41,000  Level Indianapolis Center
02:30PM 38.2581 -81.7494 88° East 501 577 41,000  Level Indianapolis Center
02:31PM 38.2603 -81.5728 89° East 504 580 41,000  Level Indianapolis Center
02:32PM 38.2628 -81.3964 89° East 504 580 41,000  Level Indianapolis Center
02:33PM 38.2642 -81.2197 89° East 505 581 41,000  Level Indianapolis Center
02:34PM 38.2661 -81.0436 89° East 503 579 41,000  Level Indianapolis Center
02:35PM 38.2675 -80.8672 89° East 502 578 41,000  Level Indianapolis Center
02:36PM 38.2703 -80.6531 89° East 507 583 41,000  Level Indianapolis Center
02:37PM 38.2717 -80.4775 89° East 499 574 41,000  Level Indianapolis Center
02:38PM 38.2717 -80.3031 90° East 495 570 41,000  Level Indianapolis Center
02:39PM 38.2850 -80.1444 84° East 495 570 41,000  Level Washington Center
02:40PM 38.3164 -79.9769 77° East 489 563 41,000 -1,020 Level Washington Center
02:41PM 38.3481 -79.7856 78° East 494 568 39,000 -2,340 Descending Washington Center
02:42PM 38.3747 -79.6175 79° East 494 568 36,400 -2,820 Descending Washington Center
02:43PM 38.4031 -79.4519 78° East 489 563 33,400 -3,000 Descending Washington Center
02:44PM 38.4317 -79.2786 78° East 489 563 30,400 -2,700 Descending Washington Center
02:45PM 38.4575 -79.1128 79° East 484 557 28,100 -1,620 Descending Washington Center
02:46PM 38.4803 -78.9733 78° East 471 542 27,200 -960 Descending Washington Center
02:47PM 38.5011 -78.8150 80° East 456 525 26,200 -960 Descending Washington Center
02:48PM 38.5264 -78.6436 79° East 449 517 25,300 -600 Descending Washington Center
02:49PM 38.5467 -78.5092 79° East 444 511 25,000 -180 Descending Washington Center
02:50PM 38.5711 -78.3561 78° East 444 511 25,000 -540 Level Washington Center
02:51PM 38.5956 -78.1869 79° East 439 505 24,000 -1,620 Descending Washington Center
02:52PM 38.6153 -78.0389 80° East 427 491 21,800 -2,400 Descending Washington Center
02:53PM 38.6369 -77.8961 79° East 419 482 19,200 -1,440 Descending Washington Center
02:54PM 38.6481 -77.7528 84° East 408 470 19,000 -120 Descending Washington Center
02:55PM 38.6567 -77.6094 86° East 403 464 19,000 -660 Level Washington Center
02:56PM 38.6667 -77.4833 84° East 391 450 17,800 -1,740 Descending Potomac TRACON
02:57PM 38.6667 -77.3667 90° East 391 450 16,000 -1,320 Descending Potomac TRACON
02:58PM 38.6833 -77.2167 82° East 380 437 15,300 -1,440 Descending Potomac TRACON
02:59PM 38.6833 -77.0833 90° East 367 422 13,200 -1,860 Descending Potomac TRACON
03:00PM 38.7000 -76.9667 80° East 357 411 11,600 -1,500 Descending Potomac TRACON
03:01PM 38.7000 -76.8333 90° East 345 397 10,200 -1,320 Descending Potomac TRACON
03:02PM 38.7167 -76.7333 78° East 310 357 9,000 -1,200 Descending Potomac TRACON
03:03PM 38.7500 -76.6333 67° East 298 343 7,900 -1,380 Descending Potomac TRACON
03:04PM 38.8000 -76.5500 52° Northeast 297 342 6,300 -1,440 Descending Potomac TRACON
03:05PM 38.8667 -76.5500 360° North 271 312 5,100 -1,200 Descending Potomac TRACON
03:06PM 38.9333 -76.5833 339° North 278 320 4,000 -540 Descending Potomac TRACON
03:07PM 38.9833 -76.6333 322° Northwest 266 306 4,100  Climbing Potomac TRACON
03:08PM 39.0333 -76.7167 308° West 260 299 4,000 -240 Descending Potomac TRACON
03:09PM 39.0667 -76.8000 297° West 258 297 3,700 -660 Descending Potomac TRACON
03:10PM 39.1167 -76.8500 322° Northwest 247 284 2,700 -900 Descending Potomac TRACON
03:11PM 39.1667 -76.8333 14° North 220 253 2,000 -600 Descending Potomac TRACON
03:12PM 39.1833 -76.7833 67° East 163 188 1,600 -600 Descending Potomac TRACON
03:13PM 39.1833 -76.7167 90° East 141 162 800 -840 Descending Potomac TRACON
03:15PM 39.1667 -76.6667 11° North  Level FlightAware Approximate
03:22PM 39.1754 -76.6683 11° North  Level Estimated
03:23PM 39.1754 -76.6683 11° North  Level Estimated